createdAt,value
2018-12-05T00:01:56.220Z,49.30
2018-12-05T00:04:22.838Z,49.10
2018-12-05T00:06:48.901Z,48.90
2018-12-05T00:09:14.926Z,48.90
2018-12-05T00:19:15.763Z,49.00
2018-12-05T00:21:41.833Z,49.00
2018-12-05T00:24:08.942Z,48.90
2018-12-05T00:29:05.405Z,49.60
2018-12-05T00:36:34.379Z,49.00
2018-12-05T00:41:31.714Z,48.90
2018-12-05T00:43:57.778Z,48.80
2018-12-05T00:51:27.060Z,49.20
2018-12-05T00:53:53.057Z,48.70
2018-12-05T00:56:19.091Z,48.80
2018-12-05T01:01:16.465Z,48.80
2018-12-05T01:03:42.510Z,48.80
2018-12-05T01:06:08.524Z,48.70
2018-12-05T01:08:34.466Z,48.80
2018-12-05T01:13:32.342Z,48.80
2018-12-05T01:15:59.154Z,48.90
2018-12-05T01:20:57.739Z,48.70
2018-12-05T01:25:56.397Z,48.60
2018-12-05T01:28:22.399Z,48.60
2018-12-05T01:30:48.376Z,48.60
2018-12-05T01:38:17.965Z,48.50
2018-12-05T01:43:15.327Z,48.60
2018-12-05T01:45:41.356Z,48.50
2018-12-05T01:48:07.385Z,48.50
2018-12-05T01:50:33.413Z,48.50
2018-12-05T01:52:59.424Z,48.40
2018-12-05T01:55:25.448Z,48.50
2018-12-05T01:57:51.488Z,48.50
2018-12-05T02:00:17.491Z,48.50
2018-12-05T02:02:43.504Z,48.50
2018-12-05T02:05:09.517Z,48.50
2018-12-05T02:10:09.761Z,48.40
2018-12-05T02:12:35.824Z,48.40
2018-12-05T02:15:01.823Z,48.40
2018-12-05T02:17:27.816Z,48.50
2018-12-05T02:19:54.463Z,48.40
2018-12-05T02:24:52.692Z,48.50
2018-12-05T02:27:18.688Z,48.40
2018-12-05T02:29:44.740Z,48.50
2018-12-05T02:32:10.751Z,48.50
2018-12-05T02:34:36.752Z,48.60
2018-12-05T02:37:02.787Z,48.40
2018-12-05T02:39:33.936Z,48.40
2018-12-05T02:44:31.867Z,48.40
2018-12-05T02:47:03.850Z,48.60
2018-12-05T02:49:33.781Z,48.40
2018-12-05T02:51:59.835Z,48.40
2018-12-05T02:54:25.888Z,48.40
2018-12-05T02:56:51.828Z,48.40
2018-12-05T02:59:18.432Z,48.50
2018-12-05T03:01:44.544Z,48.40
2018-12-05T03:04:10.565Z,48.60
2018-12-05T03:06:36.613Z,48.30
2018-12-05T03:11:39.893Z,48.20
2018-12-05T03:14:05.907Z,48.30
2018-12-05T03:16:31.973Z,48.20
2018-12-05T03:18:57.948Z,48.30
2018-12-05T03:21:23.883Z,48.20
2018-12-05T03:23:50.017Z,48.20
2018-12-05T03:26:15.991Z,48.20
2018-12-05T03:31:15.859Z,48.30
2018-12-05T03:33:41.916Z,48.30
2018-12-05T03:41:11.827Z,48.30
2018-12-05T03:43:37.878Z,48.40
2018-12-05T03:46:03.881Z,48.30
2018-12-05T03:51:01.271Z,48.20
2018-12-05T03:53:27.247Z,48.30
2018-12-05T03:58:26.183Z,48.20
2018-12-05T04:00:58.023Z,48.20
2018-12-05T04:03:24.119Z,48.20
2018-12-05T04:08:21.830Z,48.10
2018-12-05T04:10:47.876Z,48.10
2018-12-05T04:13:13.869Z,48.00
2018-12-05T04:15:39.893Z,48.10
2018-12-05T04:18:05.921Z,48.20
2018-12-05T04:20:31.996Z,48.10
2018-12-05T04:22:57.979Z,48.10
2018-12-05T04:25:23.996Z,48.10
2018-12-05T04:27:50.012Z,48.20
2018-12-05T04:30:16.065Z,48.00
2018-12-05T04:32:42.066Z,48.00
2018-12-05T04:40:12.212Z,48.10
2018-12-05T04:47:41.337Z,48.00
2018-12-05T04:50:07.382Z,48.00
2018-12-05T04:52:33.395Z,48.00
2018-12-05T04:54:59.406Z,47.90
2018-12-05T04:57:26.050Z,48.00
2018-12-05T04:59:51.935Z,47.90
2018-12-05T05:02:21.866Z,47.90
2018-12-05T05:04:51.961Z,47.80
2018-12-05T05:07:17.928Z,47.70
2018-12-05T05:09:44.015Z,47.80
2018-12-05T05:12:09.986Z,47.90
2018-12-05T05:14:36.042Z,47.80
2018-12-05T05:17:02.035Z,47.80
2018-12-05T05:21:59.341Z,47.60
2018-12-05T05:24:25.417Z,47.70
2018-12-05T05:29:23.426Z,47.70
2018-12-05T05:31:50.099Z,47.60
2018-12-05T05:34:16.087Z,47.70
2018-12-05T05:36:42.089Z,47.70
2018-12-05T05:39:08.131Z,47.60
2018-12-05T05:41:34.001Z,47.70
2018-12-05T05:43:59.988Z,47.60
2018-12-05T05:46:26.001Z,47.50
2018-12-05T05:48:52.057Z,47.50
2018-12-05T05:51:18.055Z,47.50
2018-12-05T05:58:47.479Z,47.50
2018-12-05T06:01:13.413Z,47.60
2018-12-05T06:03:39.432Z,47.50
2018-12-05T06:06:05.483Z,47.40
2018-12-05T06:08:31.473Z,47.40
2018-12-05T06:10:57.495Z,47.50
2018-12-05T06:13:23.510Z,47.50
2018-12-05T06:15:49.538Z,47.40
2018-12-05T06:18:15.571Z,47.60
2018-12-05T06:20:41.603Z,47.30
2018-12-05T06:23:07.596Z,47.40
2018-12-05T06:25:33.616Z,47.20
2018-12-05T06:27:59.655Z,47.30
2018-12-05T06:30:25.713Z,47.10
2018-12-05T06:32:51.596Z,47.30
2018-12-05T06:35:17.555Z,47.40
2018-12-05T06:37:45.982Z,47.30
2018-12-05T06:40:12.012Z,47.00
2018-12-05T06:42:37.906Z,47.20
2018-12-05T06:45:04.765Z,47.50
2018-12-05T06:47:30.636Z,47.10
2018-12-05T06:52:28.725Z,47.20
2018-12-05T06:54:54.742Z,47.30
2018-12-05T06:57:20.736Z,47.20
2018-12-05T06:59:46.769Z,47.20
2018-12-05T07:02:12.799Z,47.20
2018-12-05T07:04:38.789Z,47.20
2018-12-05T07:07:05.415Z,47.20
2018-12-05T07:12:10.004Z,47.20
2018-12-05T07:14:36.030Z,47.20
2018-12-05T07:19:40.137Z,47.20
2018-12-05T07:22:06.165Z,47.10
2018-12-05T07:24:32.190Z,47.20
2018-12-05T07:26:58.060Z,47.10
2018-12-05T07:34:27.540Z,47.00
2018-12-05T07:36:53.629Z,46.90
2018-12-05T07:39:19.523Z,47.20
2018-12-05T07:44:16.968Z,47.00
2018-12-05T07:46:42.972Z,47.10
2018-12-05T07:51:40.970Z,47.10
2018-12-05T07:54:07.009Z,46.90
2018-12-05T07:56:33.039Z,46.90
2018-12-05T07:58:59.062Z,46.90
2018-12-05T08:01:25.072Z,46.90
2018-12-05T08:03:51.109Z,46.90
2018-12-05T08:06:17.044Z,46.90
2018-12-05T08:11:14.906Z,47.00
2018-12-05T08:13:40.945Z,46.90
2018-12-05T08:16:06.936Z,47.00
2018-12-05T08:18:32.960Z,47.00
2018-12-05T08:20:58.983Z,46.90
2018-12-05T08:23:25.004Z,46.90
2018-12-05T08:25:51.030Z,46.80
2018-12-05T08:28:17.061Z,46.80
2018-12-05T08:30:43.108Z,46.70
2018-12-05T08:33:09.105Z,46.70
2018-12-05T08:35:35.114Z,46.50
2018-12-05T08:38:04.037Z,46.60
2018-12-05T08:40:30.050Z,46.70
2018-12-05T08:42:56.093Z,46.60
2018-12-05T08:45:22.080Z,46.60
2018-12-05T08:50:22.117Z,46.40
2018-12-05T08:55:19.738Z,46.50
2018-12-05T08:57:45.741Z,46.70
2018-12-05T09:00:11.732Z,46.60
2018-12-05T09:05:09.940Z,46.70
2018-12-05T09:07:35.960Z,46.70
2018-12-05T09:10:01.962Z,46.70
2018-12-05T09:12:28.013Z,46.60
2018-12-05T09:14:54.073Z,46.60
2018-12-05T09:17:20.058Z,46.60
2018-12-05T09:19:46.095Z,46.70
2018-12-05T09:22:12.151Z,46.70
2018-12-05T09:24:40.185Z,46.70
2018-12-05T09:27:06.246Z,46.40
2018-12-05T09:29:32.242Z,46.60
2018-12-05T09:31:58.270Z,46.70
2018-12-05T09:34:24.300Z,46.50
2018-12-05T09:36:50.318Z,46.60
2018-12-05T09:39:16.306Z,46.40
2018-12-05T09:41:46.252Z,47.10
2018-12-05T09:44:12.250Z,46.20
2018-12-05T09:46:38.276Z,46.30
2018-12-05T09:49:04.180Z,46.10
2018-12-05T09:51:34.196Z,46.20
2018-12-05T09:54:04.180Z,46.00
2018-12-05T09:56:34.266Z,46.20
2018-12-05T09:59:00.261Z,46.10
2018-12-05T10:01:28.013Z,46.10
2018-12-05T10:03:53.883Z,46.30
2018-12-05T10:06:22.218Z,46.10
2018-12-05T10:11:22.283Z,46.10
2018-12-05T10:13:48.344Z,46.20
2018-12-05T10:18:46.078Z,46.30
2018-12-05T10:26:16.218Z,46.30
2018-12-05T10:28:42.276Z,46.20
2018-12-05T10:31:08.260Z,46.00
2018-12-05T10:36:06.279Z,46.20
2018-12-05T10:38:32.334Z,46.10
2018-12-05T10:40:58.294Z,46.10
2018-12-05T10:43:24.320Z,46.30
2018-12-05T10:45:50.378Z,46.30
2018-12-05T10:48:16.404Z,46.20
2018-12-05T10:50:42.392Z,46.40
2018-12-05T10:53:08.444Z,46.30
2018-12-05T10:55:34.468Z,46.30
2018-12-05T10:58:00.457Z,46.40
2018-12-05T11:00:28.146Z,46.20
2018-12-05T11:02:54.156Z,46.30
2018-12-05T11:05:20.195Z,46.30
2018-12-05T11:07:46.174Z,46.30
2018-12-05T11:10:16.123Z,46.40
2018-12-05T11:12:42.168Z,46.40
2018-12-05T11:15:08.169Z,46.40
2018-12-05T11:17:34.235Z,46.40
2018-12-05T11:20:00.217Z,46.60
2018-12-05T11:22:26.235Z,46.50
2018-12-05T11:24:52.238Z,46.50
2018-12-05T11:29:49.629Z,46.40
2018-12-05T11:32:15.684Z,46.50
2018-12-05T11:34:41.679Z,46.30
2018-12-05T11:37:07.693Z,46.50
2018-12-05T11:39:33.715Z,46.50
2018-12-05T11:41:59.748Z,46.60
2018-12-05T11:44:25.772Z,46.80
2018-12-05T11:46:51.707Z,46.90
2018-12-05T11:49:22.308Z,46.70
2018-12-05T11:51:52.939Z,46.60
2018-12-05T11:54:18.254Z,46.70
2018-12-05T11:56:44.273Z,46.90
2018-12-05T11:59:10.284Z,46.80
2018-12-05T12:01:36.427Z,46.70
2018-12-05T12:04:02.394Z,46.70
2018-12-05T12:08:59.708Z,46.80
2018-12-05T12:11:25.742Z,46.70
2018-12-05T12:13:51.831Z,46.60
2018-12-05T12:16:17.802Z,46.50
2018-12-05T12:18:43.816Z,46.60
2018-12-05T12:21:10.250Z,46.50
2018-12-05T12:28:39.006Z,46.60
2018-12-05T12:31:05.006Z,46.50
2018-12-05T12:33:31.021Z,46.70
2018-12-05T12:35:57.037Z,46.60
2018-12-05T12:38:23.127Z,46.70
2018-12-05T12:43:21.275Z,47.00
2018-12-05T12:45:47.295Z,47.00
2018-12-05T12:48:13.284Z,46.80
2018-12-05T12:50:40.353Z,46.90
2018-12-05T12:53:06.354Z,46.80
2018-12-05T12:58:04.385Z,47.10
2018-12-05T13:00:30.396Z,46.80
2018-12-05T13:02:56.440Z,47.00
2018-12-05T13:05:22.440Z,46.80
2018-12-05T13:07:48.535Z,46.80
2018-12-05T13:10:14.445Z,46.70
2018-12-05T13:15:16.367Z,46.90
2018-12-05T13:17:42.396Z,47.00
2018-12-05T13:20:08.399Z,47.00
2018-12-05T13:22:34.292Z,47.10
2018-12-05T13:25:00.202Z,47.10
2018-12-05T13:30:04.241Z,47.80
2018-12-05T13:32:30.197Z,47.30
2018-12-05T13:34:56.228Z,47.20
2018-12-05T13:37:22.228Z,47.20
2018-12-05T13:39:52.362Z,47.20
2018-12-05T13:42:18.359Z,47.20
2018-12-05T13:44:44.986Z,47.20
2018-12-05T13:47:16.362Z,47.40
2018-12-05T13:49:42.443Z,47.30
2018-12-05T13:52:08.368Z,47.40
2018-12-05T13:54:34.997Z,47.40
2018-12-05T13:57:04.184Z,47.40
2018-12-05T13:59:30.174Z,47.40
2018-12-05T14:01:56.180Z,47.50
2018-12-05T14:06:53.604Z,47.40
2018-12-05T14:09:19.624Z,47.40
2018-12-05T14:11:45.602Z,47.20
2018-12-05T14:16:42.987Z,47.10
2018-12-05T14:19:08.984Z,47.10
2018-12-05T14:26:38.660Z,47.40
2018-12-05T14:34:08.705Z,47.60
2018-12-05T14:36:34.759Z,47.50
2018-12-05T14:39:00.662Z,47.60
2018-12-05T14:41:26.591Z,47.50
2018-12-05T14:43:52.567Z,47.50
2018-12-05T14:46:18.625Z,47.70
2018-12-05T14:48:44.634Z,47.60
2018-12-05T14:51:10.650Z,47.80
2018-12-05T14:53:36.728Z,47.70
2018-12-05T15:01:10.311Z,47.70
2018-12-05T15:03:40.491Z,47.70
2018-12-05T15:06:06.460Z,47.90
2018-12-05T15:08:32.469Z,47.90
2018-12-05T15:10:58.385Z,47.90
2018-12-05T15:13:28.429Z,47.60
2018-12-05T15:15:54.434Z,47.60
2018-12-05T15:18:20.487Z,47.70
2018-12-05T15:20:46.500Z,47.70
2018-12-05T15:23:12.530Z,47.80
2018-12-05T15:25:38.569Z,47.70
2018-12-05T15:28:04.567Z,47.90
2018-12-05T15:30:30.722Z,47.80
2018-12-05T15:32:58.502Z,47.60
2018-12-05T15:35:24.470Z,47.60
2018-12-05T15:37:50.505Z,47.80
2018-12-05T15:42:48.650Z,48.00
2018-12-05T15:47:52.429Z,48.30
2018-12-05T15:50:18.456Z,48.30
2018-12-05T15:52:44.496Z,48.30
2018-12-05T15:55:10.566Z,48.20
2018-12-05T16:00:10.356Z,48.10
2018-12-05T16:05:07.996Z,47.80
2018-12-05T16:07:34.389Z,47.70
2018-12-05T16:10:04.459Z,48.00
2018-12-05T16:12:30.563Z,47.90
2018-12-05T16:20:04.564Z,48.00
2018-12-05T16:22:37.923Z,48.10
2018-12-05T16:25:10.486Z,48.10
2018-12-05T16:27:36.610Z,48.00
2018-12-05T16:32:34.125Z,48.20
2018-12-05T16:35:00.142Z,48.00
2018-12-05T16:37:26.168Z,48.10
2018-12-05T16:39:52.255Z,48.30
2018-12-05T16:42:22.482Z,48.30
2018-12-05T16:44:48.557Z,48.10
2018-12-05T16:47:16.371Z,47.90
2018-12-05T16:49:42.386Z,47.90
2018-12-05T16:52:08.409Z,47.80
2018-12-05T16:54:34.455Z,47.80
2018-12-05T16:57:00.492Z,47.70
2018-12-05T16:59:26.470Z,47.80
2018-12-05T17:01:52.565Z,47.90
2018-12-05T17:19:28.800Z,47.80
2018-12-05T17:21:58.311Z,47.90
2018-12-05T17:26:56.186Z,47.90
2018-12-05T17:29:22.243Z,47.90
2018-12-05T17:34:22.409Z,47.90
2018-12-05T17:46:58.561Z,48.00
2018-12-05T17:49:24.595Z,48.10
2018-12-05T18:01:58.433Z,48.10
2018-12-05T18:04:24.526Z,48.10
2018-12-05T18:14:28.418Z,48.40
2018-12-05T18:24:29.758Z,48.30
2018-12-05T18:26:55.779Z,48.20
2018-12-05T18:29:21.810Z,48.10
2018-12-05T18:31:52.560Z,48.20
2018-12-05T18:34:22.414Z,48.30
2018-12-05T18:36:52.543Z,48.30
2018-12-05T18:39:18.540Z,48.30
2018-12-05T18:41:45.211Z,48.30
2018-12-05T18:44:11.243Z,48.30
2018-12-05T18:46:37.261Z,48.40
2018-12-05T18:49:03.268Z,48.30
2018-12-05T18:51:29.291Z,48.40
2018-12-05T18:53:55.392Z,48.30
2018-12-05T18:56:22.575Z,48.30
2018-12-05T19:01:20.479Z,48.10
2018-12-05T19:03:46.603Z,48.30
2018-12-05T19:08:44.594Z,48.50
2018-12-05T19:11:10.610Z,48.40
2018-12-05T19:13:36.615Z,48.30
2018-12-05T19:16:02.622Z,48.50
2018-12-05T19:21:04.527Z,48.30
2018-12-05T19:23:30.520Z,48.50
2018-12-05T19:25:56.582Z,48.50
2018-12-05T19:28:22.572Z,48.50
2018-12-05T19:33:22.647Z,48.50
2018-12-05T19:35:48.627Z,48.40
2018-12-05T19:38:16.521Z,48.40
2018-12-05T19:40:42.548Z,48.30
2018-12-05T19:43:10.412Z,48.20
2018-12-05T19:45:36.409Z,48.20
2018-12-05T19:48:02.443Z,48.10
2018-12-05T19:50:28.456Z,48.10
2018-12-05T19:52:58.684Z,48.20
2018-12-05T19:57:58.457Z,48.20
2018-12-05T20:00:24.381Z,48.20
2018-12-05T20:02:52.545Z,48.30
2018-12-05T20:07:50.144Z,48.10
2018-12-05T20:12:47.871Z,48.30
2018-12-05T20:15:13.906Z,48.20
2018-12-05T20:17:39.903Z,48.40
2018-12-05T20:30:11.560Z,48.40
2018-12-05T20:32:37.566Z,48.30
2018-12-05T20:42:40.497Z,48.40
2018-12-05T20:45:06.593Z,48.30
2018-12-05T20:50:04.731Z,48.30
2018-12-05T21:02:37.379Z,48.40
2018-12-05T21:05:03.402Z,48.40
2018-12-05T21:07:29.404Z,48.40
2018-12-05T21:17:30.979Z,48.40
2018-12-05T21:22:28.732Z,48.50
2018-12-05T21:24:54.732Z,48.40
2018-12-05T21:27:20.746Z,48.40
2018-12-05T21:29:46.669Z,48.40
2018-12-05T21:32:12.525Z,48.30
2018-12-05T21:37:10.992Z,48.30
2018-12-05T21:39:37.027Z,48.40
2018-12-05T21:42:03.010Z,48.40
2018-12-05T21:44:29.027Z,48.40
2018-12-05T21:57:04.583Z,48.40
2018-12-05T21:59:30.562Z,48.50
2018-12-05T22:04:28.569Z,48.50
2018-12-05T22:06:54.600Z,48.40
2018-12-05T22:09:20.623Z,48.50
2018-12-05T22:11:46.604Z,48.40
2018-12-05T22:21:48.320Z,48.40
2018-12-05T22:34:22.046Z,48.50
2018-12-05T22:36:48.016Z,48.70
2018-12-05T22:44:22.702Z,48.70
2018-12-05T22:46:48.704Z,48.80
2018-12-05T22:49:14.737Z,48.80
2018-12-05T22:51:40.794Z,48.80
2018-12-05T22:56:38.122Z,48.70
2018-12-05T23:04:07.871Z,48.70
2018-12-05T23:06:33.924Z,48.70
2018-12-05T23:08:59.943Z,48.80
2018-12-05T23:14:04.666Z,48.80
2018-12-05T23:19:01.939Z,48.80
2018-12-05T23:29:03.528Z,48.90
2018-12-05T23:34:01.723Z,48.80
2018-12-05T23:36:27.792Z,48.80
2018-12-05T23:38:53.801Z,48.80
